sensor_id;sensor_type;location;lat;lon;timestamp;P1;durP1;ratioP1;P2;durP2;ratioP2
76094;SDS011;64821;13.710;100.604;2024-02-16T00:00:38;18.55;;;12.18;;
76094;SDS011;64821;13.710;100.604;2024-02-16T00:01:42;15.27;;;11.50;;
76094;SDS011;64821;13.710;100.604;2024-02-16T00:02:45;15.63;;;11.23;;
76094;SDS011;64821;13.710;100.604;2024-02-16T00:03:49;15.95;;;11.55;;
76094;SDS011;64821;13.710;100.604;2024-02-16T00:04:53;18.90;;;12.57;;
76094;SDS011;64821;13.710;100.604;2024-02-16T00:06:00;15.82;;;11.60;;
76094;SDS011;64821;13.710;100.604;2024-02-16T00:07:07;20.13;;;13.75;;
76094;SDS011;64821;13.710;100.604;2024-02-16T00:08:11;15.10;;;11.43;;
76094;SDS011;64821;13.710;100.604;2024-02-16T00:09:15;18.98;;;13.13;;
76094;SDS011;64821;13.710;100.604;2024-02-16T00:10:19;17.20;;;12.40;;
76094;SDS011;64821;13.710;100.604;2024-02-16T00:11:23;18.90;;;13.48;;
76094;SDS011;64821;13.710;100.604;2024-02-16T00:12:27;18.63;;;13.20;;
76094;SDS011;64821;13.710;100.604;2024-02-16T00:13:31;18.35;;;12.75;;
76094;SDS011;64821;13.710;100.604;2024-02-16T00:16:31;16.77;;;11.40;;
76094;SDS011;64821;13.710;100.604;2024-02-16T00:17:40;19.70;;;14.18;;
76094;SDS011;64821;13.710;100.604;2024-02-16T00:18:44;15.85;;;12.05;;
76094;SDS011;64821;13.710;100.604;2024-02-16T00:19:49;16.83;;;12.82;;
76094;SDS011;64821;13.710;100.604;2024-02-16T00:20:53;16.67;;;12.00;;
76094;SDS011;64821;13.710;100.604;2024-02-16T00:21:58;17.93;;;12.80;;
76094;SDS011;64821;13.710;100.604;2024-02-16T00:23:02;19.45;;;13.13;;
76094;SDS011;64821;13.710;100.604;2024-02-16T00:24:06;17.05;;;12.40;;
76094;SDS011;64821;13.710;100.604;2024-02-16T00:25:10;18.35;;;13.07;;
76094;SDS011;64821;13.710;100.604;2024-02-16T00:26:14;17.27;;;12.57;;
76094;SDS011;64821;13.710;100.604;2024-02-16T00:27:18;18.60;;;12.90;;
76094;SDS011;64821;13.710;100.604;2024-02-16T00:28:22;17.05;;;12.25;;
76094;SDS011;64821;13.710;100.604;2024-02-16T00:29:26;18.67;;;13.40;;
76094;SDS011;64821;13.710;100.604;2024-02-16T00:30:31;18.63;;;13.60;;
76094;SDS011;64821;13.710;100.604;2024-02-16T00:31:35;20.45;;;14.48;;
76094;SDS011;64821;13.710;100.604;2024-02-16T00:32:39;20.43;;;14.17;;
76094;SDS011;64821;13.710;100.604;2024-02-16T00:33:43;20.52;;;13.85;;
76094;SDS011;64821;13.710;100.604;2024-02-16T00:35:35;17.67;;;12.65;;
76094;SDS011;64821;13.710;100.604;2024-02-16T00:36:22;18.45;;;12.38;;
76094;SDS011;64821;13.710;100.604;2024-02-16T00:37:28;15.50;;;11.95;;
76094;SDS011;64821;13.710;100.604;2024-02-16T00:38:32;17.67;;;13.77;;
76094;SDS011;64821;13.710;100.604;2024-02-16T00:39:36;16.88;;;12.45;;
76094;SDS011;64821;13.710;100.604;2024-02-16T00:40:40;20.13;;;14.25;;
76094;SDS011;64821;13.710;100.604;2024-02-16T00:41:44;20.00;;;14.38;;
76094;SDS011;64821;13.710;100.604;2024-02-16T00:42:48;19.88;;;14.02;;
76094;SDS011;64821;13.710;100.604;2024-02-16T00:43:55;17.97;;;13.53;;
76094;SDS011;64821;13.710;100.604;2024-02-16T00:45:04;19.27;;;14.05;;
76094;SDS011;64821;13.710;100.604;2024-02-16T00:46:08;17.98;;;13.63;;
76094;SDS011;64821;13.710;100.604;2024-02-16T00:47:12;17.70;;;13.18;;
76094;SDS011;64821;13.710;100.604;2024-02-16T00:48:18;19.30;;;13.85;;
76094;SDS011;64821;13.710;100.604;2024-02-16T00:49:22;19.33;;;12.90;;
76094;SDS011;64821;13.710;100.604;2024-02-16T00:50:26;19.08;;;13.57;;
76094;SDS011;64821;13.710;100.604;2024-02-16T00:51:30;17.02;;;12.50;;
76094;SDS011;64821;13.710;100.604;2024-02-16T00:52:36;16.08;;;12.13;;
76094;SDS011;64821;13.710;100.604;2024-02-16T00:53:40;17.30;;;12.27;;
76094;SDS011;64821;13.710;100.604;2024-02-16T00:54:44;19.43;;;13.37;;
76094;SDS011;64821;13.710;100.604;2024-02-16T00:55:48;16.92;;;12.65;;
76094;SDS011;64821;13.710;100.604;2024-02-16T00:56:52;16.90;;;13.02;;
76094;SDS011;64821;13.710;100.604;2024-02-16T00:57:55;17.52;;;12.77;;
76094;SDS011;64821;13.710;100.604;2024-02-16T00:58:59;17.80;;;12.98;;
76094;SDS011;64821;13.710;100.604;2024-02-16T01:00:04;17.63;;;12.53;;
76094;SDS011;64821;13.710;100.604;2024-02-16T01:01:09;16.67;;;12.57;;
76094;SDS011;64821;13.710;100.604;2024-02-16T01:02:13;18.83;;;13.95;;
76094;SDS011;64821;13.710;100.604;2024-02-16T01:03:17;20.15;;;13.70;;
76094;SDS011;64821;13.710;100.604;2024-02-16T01:04:21;15.57;;;12.23;;
76094;SDS011;64821;13.710;100.604;2024-02-16T01:05:25;15.97;;;12.20;;
76094;SDS011;64821;13.710;100.604;2024-02-16T01:06:29;16.63;;;12.20;;
76094;SDS011;64821;13.710;100.604;2024-02-16T01:07:34;18.63;;;14.00;;
76094;SDS011;64821;13.710;100.604;2024-02-16T01:08:40;21.13;;;14.10;;
76094;SDS011;64821;13.710;100.604;2024-02-16T01:09:44;19.02;;;13.50;;
76094;SDS011;64821;13.710;100.604;2024-02-16T01:10:48;17.53;;;13.23;;
76094;SDS011;64821;13.710;100.604;2024-02-16T01:11:52;17.63;;;12.60;;
76094;SDS011;64821;13.710;100.604;2024-02-16T01:12:56;17.73;;;13.40;;
76094;SDS011;64821;13.710;100.604;2024-02-16T01:14:00;21.25;;;15.57;;
76094;SDS011;64821;13.710;100.604;2024-02-16T01:15:04;18.83;;;14.18;;
76094;SDS011;64821;13.710;100.604;2024-02-16T01:16:09;17.70;;;13.40;;
76094;SDS011;64821;13.710;100.604;2024-02-16T01:17:12;17.73;;;13.40;;
76094;SDS011;64821;13.710;100.604;2024-02-16T01:18:16;21.20;;;14.27;;
76094;SDS011;64821;13.710;100.604;2024-02-16T01:19:24;17.95;;;12.93;;
76094;SDS011;64821;13.710;100.604;2024-02-16T01:20:28;15.95;;;13.00;;
76094;SDS011;64821;13.710;100.604;2024-02-16T01:21:32;20.60;;;14.03;;
76094;SDS011;64821;13.710;100.604;2024-02-16T01:22:38;20.50;;;15.05;;
76094;SDS011;64821;13.710;100.604;2024-02-16T01:23:42;17.58;;;13.27;;
76094;SDS011;64821;13.710;100.604;2024-02-16T01:24:46;17.17;;;12.75;;
76094;SDS011;64821;13.710;100.604;2024-02-16T01:25:50;17.00;;;12.68;;
76094;SDS011;64821;13.710;100.604;2024-02-16T01:26:54;19.90;;;14.80;;
76094;SDS011;64821;13.710;100.604;2024-02-16T01:27:58;18.17;;;13.10;;
76094;SDS011;64821;13.710;100.604;2024-02-16T01:29:02;18.95;;;14.25;;
76094;SDS011;64821;13.710;100.604;2024-02-16T01:30:06;17.98;;;13.48;;
76094;SDS011;64821;13.710;100.604;2024-02-16T01:31:11;18.30;;;13.30;;
76094;SDS011;64821;13.710;100.604;2024-02-16T01:32:15;19.80;;;14.50;;
76094;SDS011;64821;13.710;100.604;2024-02-16T01:33:19;21.95;;;15.07;;
76094;SDS011;64821;13.710;100.604;2024-02-16T01:34:26;22.52;;;15.30;;
76094;SDS011;64821;13.710;100.604;2024-02-16T01:35:31;16.77;;;12.95;;
76094;SDS011;64821;13.710;100.604;2024-02-16T01:36:35;17.98;;;13.82;;
76094;SDS011;64821;13.710;100.604;2024-02-16T01:37:40;17.03;;;13.67;;
76094;SDS011;64821;13.710;100.604;2024-02-16T01:38:44;22.10;;;14.80;;
76094;SDS011;64821;13.710;100.604;2024-02-16T01:39:49;21.52;;;15.00;;
76094;SDS011;64821;13.710;100.604;2024-02-16T01:40:53;19.98;;;14.38;;
76094;SDS011;64821;13.710;100.604;2024-02-16T01:41:57;21.92;;;15.40;;
76094;SDS011;64821;13.710;100.604;2024-02-16T01:43:01;18.63;;;14.37;;
76094;SDS011;64821;13.710;100.604;2024-02-16T01:44:05;18.77;;;14.30;;
76094;SDS011;64821;13.710;100.604;2024-02-16T01:45:09;19.70;;;13.60;;
76094;SDS011;64821;13.710;100.604;2024-02-16T01:46:13;19.88;;;14.52;;
76094;SDS011;64821;13.710;100.604;2024-02-16T01:47:17;19.83;;;15.40;;
76094;SDS011;64821;13.710;100.604;2024-02-16T01:48:22;17.30;;;13.77;;
76094;SDS011;64821;13.710;100.604;2024-02-16T01:49:26;20.05;;;15.30;;
76094;SDS011;64821;13.710;100.604;2024-02-16T01:50:31;21.23;;;15.35;;
76094;SDS011;64821;13.710;100.604;2024-02-16T01:51:39;24.83;;;15.40;;
76094;SDS011;64821;13.710;100.604;2024-02-16T01:52:47;19.88;;;15.13;;
76094;SDS011;64821;13.710;100.604;2024-02-16T01:53:51;21.07;;;15.50;;
76094;SDS011;64821;13.710;100.604;2024-02-16T01:54:57;21.52;;;16.05;;
76094;SDS011;64821;13.710;100.604;2024-02-16T01:56:01;19.98;;;15.35;;
76094;SDS011;64821;13.710;100.604;2024-02-16T01:57:06;19.92;;;13.65;;
76094;SDS011;64821;13.710;100.604;2024-02-16T01:58:10;21.52;;;15.10;;
76094;SDS011;64821;13.710;100.604;2024-02-16T01:59:15;18.67;;;15.20;;
76094;SDS011;64821;13.710;100.604;2024-02-16T02:00:20;19.40;;;14.20;;
76094;SDS011;64821;13.710;100.604;2024-02-16T02:01:24;19.55;;;14.25;;
76094;SDS011;64821;13.710;100.604;2024-02-16T02:02:28;18.27;;;14.60;;
76094;SDS011;64821;13.710;100.604;2024-02-16T02:03:31;20.20;;;15.00;;
76094;SDS011;64821;13.710;100.604;2024-02-16T02:04:36;17.07;;;13.83;;
76094;SDS011;64821;13.710;100.604;2024-02-16T02:05:43;17.80;;;14.93;;
76094;SDS011;64821;13.710;100.604;2024-02-16T02:06:48;20.42;;;14.68;;
76094;SDS011;64821;13.710;100.604;2024-02-16T02:07:54;18.77;;;14.38;;
76094;SDS011;64821;13.710;100.604;2024-02-16T02:08:59;19.90;;;15.60;;
76094;SDS011;64821;13.710;100.604;2024-02-16T02:10:03;18.40;;;13.97;;
76094;SDS011;64821;13.710;100.604;2024-02-16T02:11:07;21.75;;;16.02;;
76094;SDS011;64821;13.710;100.604;2024-02-16T02:12:11;21.48;;;15.93;;
76094;SDS011;64821;13.710;100.604;2024-02-16T02:13:15;18.73;;;15.52;;
76094;SDS011;64821;13.710;100.604;2024-02-16T02:14:20;20.73;;;16.52;;
76094;SDS011;64821;13.710;100.604;2024-02-16T02:15:25;18.80;;;14.17;;
76094;SDS011;64821;13.710;100.604;2024-02-16T02:16:29;19.73;;;15.52;;
76094;SDS011;64821;13.710;100.604;2024-02-16T02:17:42;19.88;;;15.93;;
76094;SDS011;64821;13.710;100.604;2024-02-16T02:18:46;19.52;;;15.43;;
76094;SDS011;64821;13.710;100.604;2024-02-16T02:19:50;20.27;;;15.15;;
76094;SDS011;64821;13.710;100.604;2024-02-16T02:20:54;17.73;;;14.60;;
76094;SDS011;64821;13.710;100.604;2024-02-16T02:21:58;20.60;;;16.50;;
76094;SDS011;64821;13.710;100.604;2024-02-16T02:23:04;20.55;;;15.43;;
76094;SDS011;64821;13.710;100.604;2024-02-16T02:24:09;20.30;;;15.75;;
76094;SDS011;64821;13.710;100.604;2024-02-16T02:25:13;20.23;;;15.25;;
76094;SDS011;64821;13.710;100.604;2024-02-16T02:26:17;19.77;;;15.33;;
76094;SDS011;64821;13.710;100.604;2024-02-16T02:27:21;21.73;;;16.55;;
76094;SDS011;64821;13.710;100.604;2024-02-16T02:28:25;21.65;;;16.75;;
76094;SDS011;64821;13.710;100.604;2024-02-16T02:29:32;21.38;;;15.95;;
76094;SDS011;64821;13.710;100.604;2024-02-16T02:30:40;21.80;;;16.98;;
76094;SDS011;64821;13.710;100.604;2024-02-16T02:31:44;23.13;;;16.17;;
76094;SDS011;64821;13.710;100.604;2024-02-16T02:32:49;18.80;;;15.70;;
76094;SDS011;64821;13.710;100.604;2024-02-16T02:33:54;20.35;;;15.80;;
76094;SDS011;64821;13.710;100.604;2024-02-16T02:34:58;19.67;;;14.80;;
76094;SDS011;64821;13.710;100.604;2024-02-16T02:36:03;22.05;;;17.30;;
76094;SDS011;64821;13.710;100.604;2024-02-16T02:37:07;22.83;;;15.60;;
76094;SDS011;64821;13.710;100.604;2024-02-16T02:38:13;22.42;;;16.42;;
76094;SDS011;64821;13.710;100.604;2024-02-16T02:39:17;20.17;;;16.30;;
76094;SDS011;64821;13.710;100.604;2024-02-16T02:40:21;20.88;;;16.90;;
76094;SDS011;64821;13.710;100.604;2024-02-16T02:41:25;20.02;;;16.75;;
76094;SDS011;64821;13.710;100.604;2024-02-16T02:42:29;18.73;;;14.70;;
76094;SDS011;64821;13.710;100.604;2024-02-16T02:43:33;21.92;;;16.90;;
76094;SDS011;64821;13.710;100.604;2024-02-16T02:44:37;20.00;;;15.93;;
76094;SDS011;64821;13.710;100.604;2024-02-16T02:45:41;19.30;;;15.88;;
76094;SDS011;64821;13.710;100.604;2024-02-16T02:46:45;19.60;;;15.25;;
76094;SDS011;64821;13.710;100.604;2024-02-16T02:47:49;21.43;;;16.93;;
76094;SDS011;64821;13.710;100.604;2024-02-16T02:48:54;22.33;;;17.80;;
76094;SDS011;64821;13.710;100.604;2024-02-16T02:49:59;20.52;;;16.30;;
76094;SDS011;64821;13.710;100.604;2024-02-16T02:51:03;23.20;;;17.13;;
76094;SDS011;64821;13.710;100.604;2024-02-16T02:52:07;19.48;;;15.27;;
76094;SDS011;64821;13.710;100.604;2024-02-16T02:53:20;22.23;;;17.73;;
76094;SDS011;64821;13.710;100.604;2024-02-16T02:54:25;22.38;;;17.10;;
76094;SDS011;64821;13.710;100.604;2024-02-16T02:55:29;22.27;;;17.65;;
76094;SDS011;64821;13.710;100.604;2024-02-16T02:56:33;19.35;;;15.80;;
76094;SDS011;64821;13.710;100.604;2024-02-16T02:57:37;25.00;;;17.83;;
76094;SDS011;64821;13.710;100.604;2024-02-16T02:58:41;20.37;;;16.03;;
76094;SDS011;64821;13.710;100.604;2024-02-16T02:59:45;24.17;;;19.25;;
76094;SDS011;64821;13.710;100.604;2024-02-16T03:00:49;22.67;;;17.88;;
76094;SDS011;64821;13.710;100.604;2024-02-16T03:01:53;22.27;;;17.17;;
76094;SDS011;64821;13.710;100.604;2024-02-16T03:02:58;21.02;;;16.67;;
76094;SDS011;64821;13.710;100.604;2024-02-16T03:04:02;19.87;;;16.87;;
76094;SDS011;64821;13.710;100.604;2024-02-16T03:05:07;23.02;;;18.88;;
76094;SDS011;64821;13.710;100.604;2024-02-16T03:06:11;25.95;;;17.00;;
76094;SDS011;64821;13.710;100.604;2024-02-16T03:07:16;21.52;;;17.85;;
76094;SDS011;64821;13.710;100.604;2024-02-16T03:08:22;21.85;;;18.70;;
76094;SDS011;64821;13.710;100.604;2024-02-16T03:09:26;24.33;;;19.80;;
76094;SDS011;64821;13.710;100.604;2024-02-16T03:10:30;20.40;;;17.05;;
76094;SDS011;64821;13.710;100.604;2024-02-16T03:11:34;23.67;;;19.50;;
76094;SDS011;64821;13.710;100.604;2024-02-16T03:12:38;21.40;;;18.45;;
76094;SDS011;64821;13.710;100.604;2024-02-16T03:13:42;22.92;;;18.83;;
76094;SDS011;64821;13.710;100.604;2024-02-16T03:14:46;22.70;;;18.93;;
76094;SDS011;64821;13.710;100.604;2024-02-16T03:15:50;25.20;;;19.70;;
76094;SDS011;64821;13.710;100.604;2024-02-16T03:16:54;25.23;;;20.23;;
76094;SDS011;64821;13.710;100.604;2024-02-16T03:17:58;21.70;;;18.55;;
76094;SDS011;64821;13.710;100.604;2024-02-16T03:19:03;22.75;;;18.92;;
76094;SDS011;64821;13.710;100.604;2024-02-16T03:20:09;22.17;;;19.23;;
76094;SDS011;64821;13.710;100.604;2024-02-16T03:21:14;24.45;;;19.80;;
76094;SDS011;64821;13.710;100.604;2024-02-16T03:22:18;26.25;;;20.60;;
76094;SDS011;64821;13.710;100.604;2024-02-16T03:23:25;23.98;;;19.83;;
76094;SDS011;64821;13.710;100.604;2024-02-16T03:24:32;24.27;;;19.88;;
76094;SDS011;64821;13.710;100.604;2024-02-16T03:25:37;24.33;;;19.67;;
76094;SDS011;64821;13.710;100.604;2024-02-16T03:26:41;25.77;;;19.95;;
76094;SDS011;64821;13.710;100.604;2024-02-16T03:27:45;24.05;;;19.42;;
76094;SDS011;64821;13.710;100.604;2024-02-16T03:28:49;24.60;;;19.73;;
76094;SDS011;64821;13.710;100.604;2024-02-16T03:29:53;24.70;;;20.55;;
76094;SDS011;64821;13.710;100.604;2024-02-16T03:30:57;22.93;;;19.33;;
76094;SDS011;64821;13.710;100.604;2024-02-16T03:32:01;24.10;;;19.13;;
76094;SDS011;64821;13.710;100.604;2024-02-16T03:33:06;23.58;;;19.65;;
76094;SDS011;64821;13.710;100.604;2024-02-16T03:34:10;25.25;;;20.27;;
76094;SDS011;64821;13.710;100.604;2024-02-16T03:35:15;25.55;;;21.52;;
76094;SDS011;64821;13.710;100.604;2024-02-16T03:36:19;26.03;;;20.90;;
76094;SDS011;64821;13.710;100.604;2024-02-16T03:37:23;21.27;;;18.52;;
76094;SDS011;64821;13.710;100.604;2024-02-16T03:38:29;23.50;;;20.10;;
76094;SDS011;64821;13.710;100.604;2024-02-16T03:39:37;25.00;;;20.38;;
76094;SDS011;64821;13.710;100.604;2024-02-16T03:40:41;25.38;;;20.75;;
76094;SDS011;64821;13.710;100.604;2024-02-16T03:41:45;25.90;;;21.67;;
76094;SDS011;64821;13.710;100.604;2024-02-16T03:42:49;26.25;;;21.50;;
76094;SDS011;64821;13.710;100.604;2024-02-16T03:43:53;24.20;;;21.17;;
76094;SDS011;64821;13.710;100.604;2024-02-16T03:44:57;28.08;;;22.65;;
76094;SDS011;64821;13.710;100.604;2024-02-16T03:46:01;26.95;;;22.60;;
76094;SDS011;64821;13.710;100.604;2024-02-16T03:47:05;24.17;;;20.90;;
76094;SDS011;64821;13.710;100.604;2024-02-16T03:48:10;23.58;;;19.95;;
76094;SDS011;64821;13.710;100.604;2024-02-16T03:49:14;29.55;;;22.25;;
76094;SDS011;64821;13.710;100.604;2024-02-16T03:50:18;26.20;;;20.05;;
76094;SDS011;64821;13.710;100.604;2024-02-16T03:51:22;25.95;;;21.58;;
76094;SDS011;64821;13.710;100.604;2024-02-16T03:52:27;27.30;;;24.03;;
76094;SDS011;64821;13.710;100.604;2024-02-16T03:53:32;31.15;;;24.98;;
76094;SDS011;64821;13.710;100.604;2024-02-16T03:54:36;26.95;;;23.90;;
76094;SDS011;64821;13.710;100.604;2024-02-16T03:55:40;26.73;;;23.83;;
76094;SDS011;64821;13.710;100.604;2024-02-16T03:56:44;27.08;;;22.45;;
76094;SDS011;64821;13.710;100.604;2024-02-16T03:57:49;26.90;;;23.10;;
76094;SDS011;64821;13.710;100.604;2024-02-16T03:58:53;26.17;;;23.33;;
76094;SDS011;64821;13.710;100.604;2024-02-16T03:59:57;25.48;;;21.52;;
76094;SDS011;64821;13.710;100.604;2024-02-16T04:01:01;26.95;;;22.90;;
76094;SDS011;64821;13.710;100.604;2024-02-16T04:02:05;27.50;;;23.85;;
76094;SDS011;64821;13.710;100.604;2024-02-16T04:03:09;28.07;;;24.03;;
76094;SDS011;64821;13.710;100.604;2024-02-16T04:04:13;29.70;;;24.50;;
76094;SDS011;64821;13.710;100.604;2024-02-16T04:05:17;29.77;;;23.33;;
76094;SDS011;64821;13.710;100.604;2024-02-16T04:06:21;27.60;;;23.42;;
76094;SDS011;64821;13.710;100.604;2024-02-16T04:07:25;28.50;;;24.20;;
76094;SDS011;64821;13.710;100.604;2024-02-16T04:08:29;26.27;;;21.77;;
76094;SDS011;64821;13.710;100.604;2024-02-16T04:09:34;27.42;;;23.23;;
76094;SDS011;64821;13.710;100.604;2024-02-16T04:10:39;27.40;;;23.08;;
76094;SDS011;64821;13.710;100.604;2024-02-16T04:11:43;26.33;;;22.45;;
76094;SDS011;64821;13.710;100.604;2024-02-16T04:12:48;29.83;;;24.08;;
76094;SDS011;64821;13.710;100.604;2024-02-16T04:13:52;28.53;;;23.43;;
76094;SDS011;64821;13.710;100.604;2024-02-16T04:15:03;30.67;;;25.70;;
76094;SDS011;64821;13.710;100.604;2024-02-16T04:16:08;28.20;;;24.98;;
76094;SDS011;64821;13.710;100.604;2024-02-16T04:17:12;29.13;;;24.27;;
76094;SDS011;64821;13.710;100.604;2024-02-16T04:18:16;29.90;;;26.48;;
76094;SDS011;64821;13.710;100.604;2024-02-16T04:19:20;32.07;;;26.53;;
76094;SDS011;64821;13.710;100.604;2024-02-16T04:20:24;29.50;;;25.98;;
76094;SDS011;64821;13.710;100.604;2024-02-16T04:21:29;29.10;;;24.98;;
76094;SDS011;64821;13.710;100.604;2024-02-16T04:22:33;28.98;;;25.88;;
76094;SDS011;64821;13.710;100.604;2024-02-16T04:23:37;27.67;;;24.52;;
76094;SDS011;64821;13.710;100.604;2024-02-16T04:24:42;27.90;;;24.87;;
76094;SDS011;64821;13.710;100.604;2024-02-16T04:25:47;30.75;;;26.23;;
76094;SDS011;64821;13.710;100.604;2024-02-16T04:26:51;30.30;;;27.05;;
76094;SDS011;64821;13.710;100.604;2024-02-16T04:27:55;28.30;;;24.92;;
76094;SDS011;64821;13.710;100.604;2024-02-16T04:28:59;30.10;;;26.30;;
76094;SDS011;64821;13.710;100.604;2024-02-16T04:30:03;30.93;;;25.63;;
76094;SDS011;64821;13.710;100.604;2024-02-16T04:31:09;32.30;;;25.77;;
76094;SDS011;64821;13.710;100.604;2024-02-16T04:32:13;27.90;;;24.85;;
76094;SDS011;64821;13.710;100.604;2024-02-16T04:33:17;30.60;;;26.80;;
76094;SDS011;64821;13.710;100.604;2024-02-16T04:34:22;28.27;;;25.13;;
76094;SDS011;64821;13.710;100.604;2024-02-16T04:35:26;30.40;;;26.77;;
76094;SDS011;64821;13.710;100.604;2024-02-16T04:36:30;29.95;;;26.67;;
76094;SDS011;64821;13.710;100.604;2024-02-16T04:37:34;37.28;;;29.20;;
76094;SDS011;64821;13.710;100.604;2024-02-16T04:38:38;35.78;;;30.38;;
76094;SDS011;64821;13.710;100.604;2024-02-16T04:39:44;31.77;;;27.33;;
76094;SDS011;64821;13.710;100.604;2024-02-16T04:40:48;32.30;;;28.83;;
76094;SDS011;64821;13.710;100.604;2024-02-16T04:41:52;35.60;;;31.35;;
76094;SDS011;64821;13.710;100.604;2024-02-16T04:42:56;30.05;;;26.80;;
76094;SDS011;64821;13.710;100.604;2024-02-16T04:44:00;34.30;;;29.70;;
76094;SDS011;64821;13.710;100.604;2024-02-16T04:45:04;32.20;;;27.38;;
76094;SDS011;64821;13.710;100.604;2024-02-16T04:46:13;32.20;;;28.33;;
76094;SDS011;64821;13.710;100.604;2024-02-16T04:47:17;34.35;;;29.15;;
76094;SDS011;64821;13.710;100.604;2024-02-16T04:48:21;35.40;;;30.35;;
76094;SDS011;64821;13.710;100.604;2024-02-16T04:49:25;33.90;;;30.17;;
76094;SDS011;64821;13.710;100.604;2024-02-16T04:50:29;32.42;;;29.00;;
76094;SDS011;64821;13.710;100.604;2024-02-16T04:51:34;33.60;;;29.30;;
76094;SDS011;64821;13.710;100.604;2024-02-16T04:52:38;32.25;;;28.75;;
76094;SDS011;64821;13.710;100.604;2024-02-16T04:53:43;32.60;;;27.88;;
76094;SDS011;64821;13.710;100.604;2024-02-16T04:54:48;30.48;;;26.85;;
76094;SDS011;64821;13.710;100.604;2024-02-16T04:55:52;31.33;;;27.70;;
76094;SDS011;64821;13.710;100.604;2024-02-16T04:56:56;34.17;;;29.57;;
76094;SDS011;64821;13.710;100.604;2024-02-16T04:58:00;33.33;;;29.25;;
76094;SDS011;64821;13.710;100.604;2024-02-16T04:59:04;33.75;;;30.05;;
76094;SDS011;64821;13.710;100.604;2024-02-16T05:00:09;30.98;;;27.27;;
76094;SDS011;64821;13.710;100.604;2024-02-16T05:01:14;31.15;;;27.85;;
76094;SDS011;64821;13.710;100.604;2024-02-16T05:02:18;34.77;;;29.73;;
76094;SDS011;64821;13.710;100.604;2024-02-16T05:03:22;35.05;;;29.58;;
76094;SDS011;64821;13.710;100.604;2024-02-16T05:04:26;33.65;;;28.83;;
76094;SDS011;64821;13.710;100.604;2024-02-16T05:05:30;34.60;;;29.95;;
76094;SDS011;64821;13.710;100.604;2024-02-16T05:06:38;30.95;;;27.63;;
76094;SDS011;64821;13.710;100.604;2024-02-16T05:07:42;31.53;;;28.17;;
76094;SDS011;64821;13.710;100.604;2024-02-16T05:08:49;35.05;;;30.92;;
76094;SDS011;64821;13.710;100.604;2024-02-16T05:09:55;35.72;;;30.95;;
76094;SDS011;64821;13.710;100.604;2024-02-16T05:11:00;36.17;;;30.63;;
76094;SDS011;64821;13.710;100.604;2024-02-16T05:12:04;33.83;;;30.13;;
76094;SDS011;64821;13.710;100.604;2024-02-16T05:13:08;36.40;;;31.57;;
76094;SDS011;64821;13.710;100.604;2024-02-16T05:14:12;31.95;;;28.55;;
76094;SDS011;64821;13.710;100.604;2024-02-16T05:15:16;32.90;;;28.35;;
76094;SDS011;64821;13.710;100.604;2024-02-16T05:16:20;33.10;;;27.92;;
76094;SDS011;64821;13.710;100.604;2024-02-16T05:17:24;35.15;;;30.73;;
76094;SDS011;64821;13.710;100.604;2024-02-16T05:18:29;33.03;;;29.43;;
76094;SDS011;64821;13.710;100.604;2024-02-16T05:19:33;32.78;;;28.98;;
76094;SDS011;64821;13.710;100.604;2024-02-16T05:20:37;33.45;;;29.52;;
76094;SDS011;64821;13.710;100.604;2024-02-16T05:21:41;34.05;;;29.67;;
76094;SDS011;64821;13.710;100.604;2024-02-16T05:22:45;34.22;;;29.67;;
76094;SDS011;64821;13.710;100.604;2024-02-16T05:23:49;37.03;;;31.57;;
76094;SDS011;64821;13.710;100.604;2024-02-16T05:24:55;31.75;;;28.30;;
76094;SDS011;64821;13.710;100.604;2024-02-16T05:25:59;33.08;;;28.48;;
76094;SDS011;64821;13.710;100.604;2024-02-16T05:27:03;33.63;;;27.98;;
76094;SDS011;64821;13.710;100.604;2024-02-16T05:28:07;30.42;;;24.92;;
76094;SDS011;64821;13.710;100.604;2024-02-16T05:29:11;28.67;;;24.90;;
76094;SDS011;64821;13.710;100.604;2024-02-16T05:30:15;31.02;;;24.10;;
76094;SDS011;64821;13.710;100.604;2024-02-16T05:31:19;28.90;;;23.10;;
76094;SDS011;64821;13.710;100.604;2024-02-16T05:32:23;26.58;;;22.05;;
76094;SDS011;64821;13.710;100.604;2024-02-16T05:33:27;25.13;;;21.52;;
76094;SDS011;64821;13.710;100.604;2024-02-16T05:34:32;23.83;;;19.83;;
76094;SDS011;64821;13.710;100.604;2024-02-16T05:35:36;24.25;;;20.45;;
76094;SDS011;64821;13.710;100.604;2024-02-16T05:36:42;22.83;;;19.85;;
76094;SDS011;64821;13.710;100.604;2024-02-16T05:37:46;24.13;;;19.45;;
76094;SDS011;64821;13.710;100.604;2024-02-16T05:38:50;21.98;;;18.90;;
76094;SDS011;64821;13.710;100.604;2024-02-16T05:39:56;22.47;;;18.67;;
76094;SDS011;64821;13.710;100.604;2024-02-16T05:41:00;23.70;;;18.90;;
76094;SDS011;64821;13.710;100.604;2024-02-16T05:42:04;23.35;;;18.27;;
76094;SDS011;64821;13.710;100.604;2024-02-16T05:43:08;20.45;;;16.63;;
76094;SDS011;64821;13.710;100.604;2024-02-16T05:44:12;22.92;;;17.70;;
76094;SDS011;64821;13.710;100.604;2024-02-16T05:45:16;20.60;;;16.70;;
76094;SDS011;64821;13.710;100.604;2024-02-16T05:46:21;21.05;;;17.10;;
76094;SDS011;64821;13.710;100.604;2024-02-16T05:47:25;22.92;;;16.67;;
76094;SDS011;64821;13.710;100.604;2024-02-16T05:48:29;21.20;;;16.60;;
76094;SDS011;64821;13.710;100.604;2024-02-16T05:49:33;21.98;;;16.35;;
76094;SDS011;64821;13.710;100.604;2024-02-16T05:50:37;21.13;;;16.20;;
76094;SDS011;64821;13.710;100.604;2024-02-16T05:51:41;21.67;;;16.25;;
76094;SDS011;64821;13.710;100.604;2024-02-16T05:52:45;21.30;;;16.38;;
76094;SDS011;64821;13.710;100.604;2024-02-16T05:53:49;19.40;;;15.60;;
76094;SDS011;64821;13.710;100.604;2024-02-16T05:54:53;19.65;;;15.75;;
76094;SDS011;64821;13.710;100.604;2024-02-16T05:55:59;19.80;;;15.43;;
76094;SDS011;64821;13.710;100.604;2024-02-16T05:57:03;19.50;;;15.23;;
76094;SDS011;64821;13.710;100.604;2024-02-16T05:58:10;20.33;;;15.77;;
76094;SDS011;64821;13.710;100.604;2024-02-16T05:59:14;21.30;;;15.43;;
76094;SDS011;64821;13.710;100.604;2024-02-16T06:00:18;20.88;;;15.60;;
76094;SDS011;64821;13.710;100.604;2024-02-16T06:01:23;18.23;;;14.97;;
76094;SDS011;64821;13.710;100.604;2024-02-16T06:02:27;20.70;;;15.10;;
76094;SDS011;64821;13.710;100.604;2024-02-16T06:03:30;18.10;;;14.98;;
76094;SDS011;64821;13.710;100.604;2024-02-16T06:04:34;18.88;;;14.57;;
76094;SDS011;64821;13.710;100.604;2024-02-16T06:05:39;18.52;;;14.27;;
76094;SDS011;64821;13.710;100.604;2024-02-16T06:06:43;19.60;;;14.57;;
76094;SDS011;64821;13.710;100.604;2024-02-16T06:07:47;20.20;;;14.65;;
76094;SDS011;64821;13.710;100.604;2024-02-16T06:08:51;17.85;;;13.98;;